Time;durP1;ratioP1;P1;durP2;ratioP2;P2;SDS_P1;SDS_P2;PMS_P1;PMS_P2;Temp;Humidity;BMP_temperature;BMP_pressure;BME280_temperature;BME280_humidity;BME280_pressure;Samples;Min_cycle;Max_cycle;Signal;HPM_P1;HPM_P2
2024/01/28 00:01:57;;;;;;;11.45;6.25;;;3.70;99.90;;;;;;4974451;28;20539;-83
2024/01/28 00:04:23;;;;;;;13.93;6.63;;;3.60;99.90;;;;;;4971284;28;20307;-83
2024/01/28 00:06:49;;;;;;;21.27;10.20;;;3.60;99.90;;;;;;4977361;28;20220;-83
2024/01/28 00:09:16;;;;;;;17.30;8.37;;;3.50;1.00;;;;;;4974820;28;20188;-83
2024/01/28 00:11:43;;;;;;;15.25;7.45;;;3.50;1.00;;;;;;4977541;28;20267;-83
2024/01/28 00:14:09;;;;;;;11.30;6.20;;;3.50;83.60;;;;;;4981178;28;20711;-84
2024/01/28 00:16:34;;;;;;;14.40;7.88;;;3.50;99.90;;;;;;4976533;28;20224;-84
2024/01/28 00:19:02;;;;;;;18.40;6.40;;;3.40;99.90;;;;;;4979651;28;20184;-84
2024/01/28 00:21:28;;;;;;;14.10;6.32;;;3.40;1.00;;;;;;4978839;28;20203;-83
2024/01/28 00:23:55;;;;;;;17.70;5.13;;;3.40;1.00;;;;;;4978630;28;20216;-83
2024/01/28 00:26:20;;;;;;;14.75;5.20;;;3.40;1.00;;;;;;4976993;28;20287;-83
2024/01/28 00:28:48;;;;;;;13.17;5.40;;;3.40;1.00;;;;;;4978994;28;20189;-83
2024/01/28 00:31:14;;;;;;;19.40;5.97;;;3.40;1.00;;;;;;4977455;28;20295;-83
2024/01/28 00:33:40;;;;;;;8.93;5.50;;;3.40;1.00;;;;;;4992071;28;20263;-84
2024/01/28 00:36:06;;;;;;;15.65;6.28;;;3.40;1.00;;;;;;4977301;28;20208;-82
2024/01/28 00:38:32;;;;;;;8.83;5.70;;;3.40;1.00;;;;;;4978556;28;20189;-83
2024/01/28 00:41:01;;;;;;;16.35;5.20;;;3.30;99.90;;;;;;4974043;28;20444;-84
2024/01/28 00:43:27;;;;;;;9.88;5.32;;;3.30;99.90;;;;;;4975979;28;20618;-84
2024/01/28 00:45:53;;;;;;;13.10;5.50;;;3.20;1.00;;;;;;4978787;28;20204;-83
2024/01/28 00:48:18;;;;;;;11.03;5.33;;;3.20;6.90;;;;;;4977519;28;20472;-83
2024/01/28 00:50:46;;;;;;;13.87;5.53;;;3.20;1.00;;;;;;4979433;28;20821;-84
2024/01/28 00:53:12;;;;;;;17.02;7.25;;;3.20;99.90;;;;;;4978625;28;20216;-84
2024/01/28 00:55:37;;;;;;;13.10;4.90;;;3.20;99.90;;;;;;4972425;28;20208;-84
2024/01/28 00:58:03;;;;;;;11.50;5.50;;;3.20;99.90;;;;;;4974969;28;20786;-83
2024/01/28 01:00:29;;;;;;;16.50;6.40;;;3.10;1.00;;;;;;4971319;28;20733;-84
2024/01/28 01:02:54;;;;;;;10.83;5.70;;;3.00;1.00;;;;;;4971815;28;20761;-82
2024/01/28 01:05:20;;;;;;;10.43;5.30;;;3.00;1.00;;;;;;4975063;28;20193;-83
2024/01/28 01:07:45;;;;;;;13.90;5.97;;;2.90;99.90;;;;;;4975489;28;20208;-83
2024/01/28 01:10:11;;;;;;;11.53;4.73;;;2.90;99.90;;;;;;4975863;28;20185;-83
2024/01/28 01:12:37;;;;;;;11.03;5.50;;;2.90;99.90;;;;;;4972946;28;20280;-83
2024/01/28 01:15:03;;;;;;;14.63;6.87;;;3.00;1.00;;;;;;4975575;28;20761;-83
2024/01/28 01:17:31;;;;;;;14.77;5.75;;;3.00;1.00;;;;;;4976374;28;20189;-83
2024/01/28 01:20:00;;;;;;;11.40;6.20;;;3.10;99.90;;;;;;4975643;28;20631;-83
2024/01/28 01:22:26;;;;;;;14.35;5.60;;;3.10;1.00;;;;;;4973792;28;20201;-84
2024/01/28 01:24:51;;;;;;;9.27;5.10;;;3.10;99.90;;;;;;4975479;28;20681;-83
2024/01/28 01:27:17;;;;;;;14.03;5.60;;;3.10;99.90;;;;;;4977085;28;20188;-84
2024/01/28 01:29:42;;;;;;;12.50;5.00;;;3.10;99.90;;;;;;4977651;28;20192;-83
2024/01/28 01:32:10;;;;;;;7.63;4.90;;;3.00;1.00;;;;;;4975994;28;20214;-83
2024/01/28 01:34:35;;;;;;;13.73;6.50;;;2.90;1.00;;;;;;4976673;28;20657;-84
2024/01/28 01:37:01;;;;;;;15.83;6.53;;;2.80;1.00;;;;;;4975190;28;20189;-83
2024/01/28 01:39:27;;;;;;;14.70;6.47;;;2.70;1.00;;;;;;4975048;28;20243;-83
2024/01/28 01:41:52;;;;;;;11.73;4.90;;;2.70;38.80;;;;;;4972182;28;21046;-84
2024/01/28 01:44:20;;;;;;;14.67;6.27;;;2.60;94.90;;;;;;4992300;28;20644;-83
2024/01/28 01:46:45;;;;;;;12.40;5.75;;;2.60;84.70;;;;;;4977300;28;20181;-84
2024/01/28 01:49:11;;;;;;;18.83;7.57;;;2.60;1.00;;;;;;4976725;28;20188;-84
2024/01/28 01:51:38;;;;;;;11.75;4.97;;;2.60;63.20;;;;;;4976291;28;20196;-84
2024/01/28 01:54:06;;;;;;;12.30;5.88;;;2.60;1.00;;;;;;4975935;28;20227;-83
2024/01/28 01:56:33;;;;;;;8.95;4.82;;;2.60;1.00;;;;;;4975812;28;20189;-83
2024/01/28 01:58:58;;;;;;;15.73;6.00;;;2.50;1.00;;;;;;4977588;28;20239;-83
2024/01/28 02:01:26;;;;;;;10.60;5.20;;;2.60;1.00;;;;;;4973904;28;20189;-83
2024/01/28 02:03:54;;;;;;;11.52;5.75;;;2.50;1.00;;;;;;4975604;28;20216;-83
2024/01/28 02:06:20;;;;;;;12.52;5.07;;;2.50;1.00;;;;;;4976806;28;20192;-82
2024/01/28 02:08:45;;;;;;;13.20;4.80;;;2.50;99.90;;;;;;4976432;28;20181;-83
2024/01/28 02:11:13;;;;;;;11.50;4.27;;;2.50;99.90;;;;;;4977585;28;20177;-84
2024/01/28 02:13:39;;;;;;;20.23;6.00;;;2.50;1.00;;;;;;4976924;28;20208;-84
2024/01/28 02:16:05;;;;;;;13.20;5.53;;;2.50;1.00;;;;;;4977916;28;20176;-84
2024/01/28 02:18:33;;;;;;;8.67;5.00;;;2.50;1.00;;;;;;4977823;28;20565;-84
2024/01/28 02:20:58;;;;;;;11.40;5.20;;;2.50;1.00;;;;;;4979113;28;20925;-84
2024/01/28 02:23:24;;;;;;;7.23;4.73;;;2.50;1.00;;;;;;4976259;28;20240;-83
2024/01/28 02:25:52;;;;;;;12.60;5.20;;;2.50;1.00;;;;;;4976609;28;20639;-84
2024/01/28 02:28:18;;;;;;;19.23;5.43;;;2.50;1.00;;;;;;4978517;28;20209;-84
2024/01/28 02:30:44;;;;;;;11.33;6.47;;;2.50;99.90;;;;;;4973089;28;20177;-84
2024/01/28 02:33:09;;;;;;;11.40;4.67;;;2.40;1.00;;;;;;4976172;28;20280;-84
2024/01/28 02:35:35;;;;;;;10.40;5.50;;;2.40;1.00;;;;;;4975352;28;20212;-84
2024/01/28 02:38:00;;;;;;;8.00;4.53;;;2.40;99.90;;;;;;4969150;28;20193;-83
2024/01/28 02:40:26;;;;;;;11.20;5.00;;;2.40;99.90;;;;;;4973480;28;20188;-82
2024/01/28 02:42:51;;;;;;;11.70;5.30;;;2.40;99.90;;;;;;4976220;28;20216;-84
2024/01/28 02:45:20;;;;;;;6.57;5.47;;;2.40;99.90;;;;;;4976484;28;20263;-84
2024/01/28 02:47:45;;;;;;;9.30;4.45;;;2.40;99.90;;;;;;4974531;28;20230;-84
2024/01/28 02:50:13;;;;;;;7.53;4.00;;;2.50;99.90;;;;;;4976614;28;20181;-84
2024/01/28 02:52:39;;;;;;;7.25;3.75;;;2.50;1.00;;;;;;4976046;28;20216;-83
2024/01/28 02:55:05;;;;;;;17.77;5.30;;;2.50;1.00;;;;;;4976170;28;20181;-83
2024/01/28 02:57:30;;;;;;;12.60;4.50;;;2.50;99.90;;;;;;4975557;28;20223;-83
2024/01/28 03:00:05;;;;;;;9.47;4.70;;;2.50;99.90;;;;;;4973193;28;20898;-83
2024/01/28 03:02:31;;;;;;;7.00;4.60;;;2.50;1.00;;;;;;4975333;28;20242;-84
2024/01/28 03:04:57;;;;;;;13.03;4.37;;;2.50;1.00;;;;;;4973502;28;20204;-83
2024/01/28 03:07:22;;;;;;;10.13;4.13;;;2.50;1.00;;;;;;4973183;28;20181;-83
2024/01/28 03:09:50;;;;;;;8.90;3.80;;;2.50;99.90;;;;;;4970891;28;20193;-83
2024/01/28 03:12:16;;;;;;;14.13;4.68;;;2.50;99.90;;;;;;4974612;28;20200;-83
2024/01/28 03:14:44;;;;;;;5.43;3.40;;;2.50;99.90;;;;;;4974440;28;20248;-84
2024/01/28 03:17:10;;;;;;;13.77;5.15;;;2.50;99.90;;;;;;4978086;28;20617;-84
2024/01/28 03:19:36;;;;;;;13.43;4.87;;;2.50;99.90;;;;;;4976998;28;20192;-84
2024/01/28 03:22:03;;;;;;;10.70;4.30;;;2.50;99.90;;;;;;4977336;28;20734;-83
2024/01/28 03:24:28;;;;;;;10.98;4.10;;;2.50;99.90;;;;;;4977205;28;20213;-83
2024/01/28 03:26:54;;;;;;;10.50;4.20;;;2.40;99.90;;;;;;4976251;28;20290;-83
2024/01/28 03:29:20;;;;;;;8.03;4.13;;;2.40;99.90;;;;;;4977175;28;20432;-84
2024/01/28 03:31:46;;;;;;;11.17;4.47;;;2.40;99.90;;;;;;4976461;28;20183;-83
2024/01/28 03:34:14;;;;;;;10.23;4.97;;;2.40;99.90;;;;;;4976288;28;21140;-83
2024/01/28 03:36:39;;;;;;;8.70;4.45;;;2.40;1.00;;;;;;4978991;28;20197;-83
2024/01/28 03:39:06;;;;;;;14.90;5.70;;;2.40;1.00;;;;;;4979558;28;20192;-83
2024/01/28 03:41:31;;;;;;;14.07;4.90;;;2.40;1.00;;;;;;4979663;28;20200;-83
2024/01/28 03:43:57;;;;;;;7.90;4.33;;;2.30;1.00;;;;;;4981306;28;20204;-84
2024/01/28 03:46:22;;;;;;;9.90;4.67;;;2.30;1.00;;;;;;4978354;28;20677;-83
2024/01/28 03:48:50;;;;;;;12.13;5.03;;;2.30;99.90;;;;;;4978274;28;20820;-84
2024/01/28 03:51:18;;;;;;;9.25;4.63;;;2.30;99.90;;;;;;4975606;28;20243;-83
2024/01/28 03:53:44;;;;;;;8.10;4.10;;;2.20;99.90;;;;;;4979110;28;20584;-84
2024/01/28 03:56:09;;;;;;;6.73;4.40;;;2.20;1.00;;;;;;4976897;28;20192;-83
2024/01/28 03:58:35;;;;;;;13.07;4.23;;;2.20;99.90;;;;;;4978928;28;20705;-84
2024/01/28 04:01:01;;;;;;;13.47;5.67;;;2.10;1.00;;;;;;4977791;28;20343;-83
2024/01/28 04:03:26;;;;;;;14.60;4.90;;;2.10;1.00;;;;;;4977328;28;20223;-83
2024/01/28 04:05:52;;;;;;;11.50;4.70;;;2.10;32.40;;;;;;4976081;28;20197;-83
2024/01/28 04:08:17;;;;;;;9.60;4.30;;;2.10;99.90;;;;;;4977467;28;20184;-83
2024/01/28 04:10:43;;;;;;;17.77;4.30;;;2.20;99.90;;;;;;4976364;28;20224;-84
2024/01/28 04:13:11;;;;;;;12.90;4.30;;;2.20;99.90;;;;;;4975263;28;20216;-84
2024/01/28 04:15:36;;;;;;;10.20;4.25;;;2.20;99.90;;;;;;4975312;28;20704;-83
2024/01/28 04:18:02;;;;;;;8.37;4.23;;;2.20;99.90;;;;;;4978222;28;20193;-83
2024/01/28 04:20:27;;;;;;;14.00;5.30;;;2.20;99.90;;;;;;4977589;28;20223;-83
2024/01/28 04:22:53;;;;;;;9.73;4.60;;;2.20;99.90;;;;;;4991482;28;20232;-84
2024/01/28 04:25:19;;;;;;;12.50;4.73;;;2.20;99.90;;;;;;4975236;28;20189;-84
2024/01/28 04:27:44;;;;;;;12.10;5.30;;;2.20;99.90;;;;;;4976492;28;20246;-84
2024/01/28 04:30:13;;;;;;;16.27;6.20;;;2.20;99.90;;;;;;4977275;28;20185;-83
2024/01/28 04:32:38;;;;;;;10.20;4.65;;;2.20;99.90;;;;;;4976782;28;20216;-83
2024/01/28 04:35:04;;;;;;;13.70;5.00;;;2.20;1.00;;;;;;4976267;28;20185;-84
2024/01/28 04:37:33;;;;;;;18.60;6.60;;;2.20;1.00;;;;;;4974391;28;20188;-83
2024/01/28 04:39:58;;;;;;;9.98;6.00;;;2.20;1.00;;;;;;4972242;28;20184;-84
2024/01/28 04:42:24;;;;;;;13.20;5.53;;;2.20;1.00;;;;;;4975898;28;20211;-84
2024/01/28 04:44:50;;;;;;;17.07;5.57;;;2.10;1.00;;;;;;4973611;28;20217;-83
2024/01/28 04:47:16;;;;;;;14.70;6.13;;;2.20;1.00;;;;;;4977817;28;20212;-84
2024/01/28 04:49:42;;;;;;;19.17;6.93;;;2.10;1.00;;;;;;4979301;28;20211;-84
2024/01/28 04:54:43;;;;;;;11.90;5.80;;;2.10;1.00;;;;;;4985967;28;20228;-83
2024/01/28 04:57:09;;;;;;;15.50;5.20;;;2.10;1.00;;;;;;4992431;28;20184;-85
2024/01/28 04:59:35;;;;;;;11.55;5.00;;;2.10;1.00;;;;;;4991521;28;20254;-84
2024/01/28 05:02:01;;;;;;;15.40;6.47;;;2.10;1.00;;;;;;4990533;28;20188;-86
2024/01/28 05:04:26;;;;;;;12.13;6.23;;;2.10;1.00;;;;;;4990099;28;20227;-83
2024/01/28 05:06:51;;;;;;;17.40;6.70;;;2.10;1.00;;;;;;4986551;28;20259;-85
2024/01/28 05:09:17;;;;;;;11.80;5.03;;;2.10;1.00;;;;;;4990197;28;20285;-84
2024/01/28 05:11:44;;;;;;;15.50;5.73;;;2.10;1.00;;;;;;4992540;28;20195;-82
2024/01/28 05:14:10;;;;;;;15.43;5.82;;;2.10;1.00;;;;;;4994044;28;20595;-82
2024/01/28 05:16:35;;;;;;;15.47;4.90;;;2.10;1.00;;;;;;4994127;28;20180;-82
2024/01/28 05:19:02;;;;;;;12.67;5.00;;;2.10;1.00;;;;;;5007650;28;20661;-82
2024/01/28 05:21:27;;;;;;;13.00;5.53;;;2.10;1.00;;;;;;4994019;28;20275;-82
2024/01/28 05:23:53;;;;;;;10.40;4.60;;;2.00;1.00;;;;;;4992511;28;20342;-82
2024/01/28 05:26:19;;;;;;;14.07;5.63;;;2.00;1.00;;;;;;4991562;28;20699;-85
2024/01/28 05:28:47;;;;;;;10.93;5.10;;;2.00;1.00;;;;;;4993333;28;20944;-82
2024/01/28 05:31:13;;;;;;;11.70;4.95;;;2.00;1.00;;;;;;4995059;28;20247;-85
2024/01/28 05:33:39;;;;;;;17.73;5.30;;;1.90;1.00;;;;;;5008804;28;20894;-84
2024/01/28 05:36:14;;;;;;;17.43;5.57;;;1.90;21.20;;;;;;4993366;28;20436;-83
2024/01/28 05:38:40;;;;;;;12.00;4.93;;;1.90;99.90;;;;;;4993664;28;20224;-82
2024/01/28 05:41:07;;;;;;;17.23;5.67;;;1.90;99.90;;;;;;4993551;28;20231;-85
2024/01/28 05:43:33;;;;;;;15.75;4.75;;;1.90;99.90;;;;;;4990667;28;20478;-84
2024/01/28 05:46:02;;;;;;;13.30;5.60;;;2.00;99.90;;;;;;4989652;28;20620;-82
2024/01/28 05:48:27;;;;;;;16.98;5.07;;;2.00;99.90;;;;;;4993867;28;20206;-82
2024/01/28 05:50:53;;;;;;;18.50;5.20;;;2.00;99.90;;;;;;4991112;28;20657;-82
2024/01/28 05:53:19;;;;;;;9.30;3.80;;;2.10;99.90;;;;;;5009578;28;20223;-83
2024/01/28 05:55:44;;;;;;;15.63;5.40;;;2.10;99.90;;;;;;5004596;28;20551;-83
2024/01/28 05:58:10;;;;;;;7.83;5.03;;;2.10;40.10;;;;;;4991635;28;20304;-81
2024/01/28 06:00:35;;;;;;;7.37;4.00;;;2.10;6.70;;;;;;4992761;28;20247;-82
2024/01/28 06:03:01;;;;;;;16.70;5.17;;;2.10;1.00;;;;;;5007586;28;20208;-83
2024/01/28 06:05:26;;;;;;;11.93;6.40;;;2.10;1.00;;;;;;4994137;28;20188;-82
2024/01/28 06:07:52;;;;;;;15.53;4.27;;;2.10;1.00;;;;;;4990747;28;20187;-82
2024/01/28 06:10:17;;;;;;;14.47;5.27;;;2.10;1.00;;;;;;4992053;28;20364;-84
2024/01/28 06:12:43;;;;;;;14.40;5.10;;;2.10;1.90;;;;;;4993219;28;20204;-83
2024/01/28 06:15:09;;;;;;;12.40;6.20;;;2.10;30.00;;;;;;5003738;28;20780;-84
2024/01/28 06:17:38;;;;;;;13.40;4.80;;;2.10;1.80;;;;;;4993098;28;20287;-84
2024/01/28 06:20:05;;;;;;;16.08;5.18;;;2.00;93.30;;;;;;4993378;28;20947;-84
2024/01/28 06:22:31;;;;;;;11.45;4.35;;;2.00;92.20;;;;;;4994135;28;20294;-84
2024/01/28 06:24:58;;;;;;;14.30;4.87;;;2.00;99.90;;;;;;4983582;28;20295;-83
2024/01/28 06:27:23;;;;;;;12.85;5.82;;;2.00;97.30;;;;;;4992148;28;20195;-83
2024/01/28 06:29:49;;;;;;;14.53;5.07;;;2.00;90.90;;;;;;5007989;28;20602;-83
2024/01/28 06:32:15;;;;;;;14.10;4.73;;;2.00;37.50;;;;;;4993787;28;20717;-85
2024/01/28 06:34:40;;;;;;;15.20;4.40;;;2.00;14.60;;;;;;5009920;28;20191;-85
2024/01/28 06:37:05;;;;;;;14.47;5.43;;;2.00;1.00;;;;;;4995167;28;20777;-84
2024/01/28 06:39:31;;;;;;;11.03;5.90;;;2.00;1.00;;;;;;4993319;28;20223;-85
2024/01/28 06:41:57;;;;;;;12.27;5.00;;;2.00;1.00;;;;;;4981780;28;20216;-85
2024/01/28 06:44:23;;;;;;;12.88;4.40;;;2.00;1.00;;;;;;5014926;28;20204;-84
2024/01/28 06:46:48;;;;;;;10.43;4.70;;;2.00;1.00;;;;;;5008566;28;20180;-84
2024/01/28 06:49:14;;;;;;;9.67;4.70;;;2.00;1.00;;;;;;4989310;28;20563;-87
2024/01/28 06:51:42;;;;;;;10.33;3.13;;;2.00;1.00;;;;;;4991626;28;20598;-84
2024/01/28 06:54:10;;;;;;;7.78;4.18;;;2.10;1.00;;;;;;4994462;28;20227;-84
2024/01/28 06:56:36;;;;;;;11.68;5.05;;;2.00;1.00;;;;;;4992500;28;20188;-86
2024/01/28 06:59:02;;;;;;;12.32;5.47;;;2.00;1.00;;;;;;4991174;28;20188;-86
2024/01/28 07:01:27;;;;;;;9.77;4.80;;;2.00;1.00;;;;;;4985885;28;20280;-84
2024/01/28 07:03:53;;;;;;;7.30;3.90;;;2.00;1.00;;;;;;4989056;28;20246;-82
2024/01/28 07:06:18;;;;;;;19.33;5.60;;;2.00;1.00;;;;;;4982516;28;20176;-82
2024/01/28 07:08:44;;;;;;;10.73;4.87;;;2.00;1.00;;;;;;4988578;28;20542;-84
2024/01/28 07:11:10;;;;;;;14.82;4.82;;;2.10;1.00;;;;;;4992254;28;20176;-85
2024/01/28 07:13:35;;;;;;;8.03;4.70;;;2.10;99.90;;;;;;4992279;28;20220;-81
2024/01/28 07:16:01;;;;;;;11.23;4.50;;;2.10;99.90;;;;;;4991695;28;20202;-84
2024/01/28 07:18:27;;;;;;;9.63;4.37;;;2.20;99.90;;;;;;4989859;28;20184;-83
2024/01/28 07:20:52;;;;;;;8.30;4.33;;;2.20;30.00;;;;;;4989556;28;20447;-85
2024/01/28 07:23:18;;;;;;;8.57;4.47;;;2.20;1.00;;;;;;4990678;28;20223;-83
2024/01/28 07:25:44;;;;;;;14.87;4.47;;;2.30;1.00;;;;;;5006911;28;20215;-82
2024/01/28 07:28:09;;;;;;;11.73;4.60;;;2.30;99.90;;;;;;4988116;28;20183;-82
2024/01/28 07:30:35;;;;;;;10.30;5.07;;;2.40;99.90;;;;;;4987578;28;20196;-84
2024/01/28 07:33:00;;;;;;;11.80;5.20;;;2.40;1.00;;;;;;4991120;28;20224;-81
2024/01/28 07:35:26;;;;;;;12.57;5.40;;;2.50;1.00;;;;;;4987643;28;20670;-81
2024/01/28 07:37:51;;;;;;;9.67;5.70;;;2.50;99.90;;;;;;4989915;28;20196;-81
2024/01/28 07:40:17;;;;;;;18.10;6.30;;;2.60;1.00;;;;;;4989677;28;20200;-83
2024/01/28 07:42:46;;;;;;;8.80;5.77;;;2.60;1.00;;;;;;5005850;28;20546;-84
2024/01/28 07:45:11;;;;;;;13.40;4.35;;;2.60;1.00;;;;;;4990956;28;20705;-83
2024/01/28 07:47:39;;;;;;;10.73;4.70;;;2.60;1.00;;;;;;4991935;28;20195;-84
2024/01/28 07:50:06;;;;;;;5.13;3.70;;;2.70;99.90;;;;;;4989409;28;20206;-84
2024/01/28 07:52:32;;;;;;;8.75;5.00;;;2.80;11.40;;;;;;4990835;28;20227;-82
2024/01/28 07:54:57;;;;;;;15.85;4.80;;;2.80;99.90;;;;;;5009170;28;20219;-83
2024/01/28 07:57:23;;;;;;;8.80;4.50;;;3.60;99.90;;;;;;4991968;28;20224;-80
2024/01/28 07:59:49;;;;;;;9.63;4.30;;;5.20;99.90;;;;;;4987346;28;20189;-82
2024/01/28 08:02:15;;;;;;;5.97;3.60;;;6.90;1.00;;;;;;4983135;28;20748;-82
2024/01/28 08:04:41;;;;;;;7.60;4.90;;;8.20;1.00;;;;;;4994568;28;20478;-82
2024/01/28 08:07:06;;;;;;;8.87;4.73;;;9.40;99.90;;;;;;4990095;28;20195;-82
2024/01/28 08:09:33;;;;;;;10.60;5.50;;;9.70;99.90;;;;;;4972557;28;20185;-81
2024/01/28 08:11:59;;;;;;;12.13;4.70;;;9.30;99.90;;;;;;4985407;28;20185;-80
2024/01/28 08:14:27;;;;;;;7.10;4.60;;;9.50;99.90;;;;;;4983978;28;20514;-81
2024/01/28 08:16:54;;;;;;;6.23;4.20;;;10.70;99.90;;;;;;4985156;28;20438;-81
2024/01/28 08:19:20;;;;;;;7.63;4.07;;;12.10;99.90;;;;;;4993328;28;20419;-84
2024/01/28 08:21:45;;;;;;;11.20;4.63;;;13.10;99.90;;;;;;4990430;28;20530;-82
2024/01/28 08:24:11;;;;;;;6.13;4.10;;;12.70;99.90;;;;;;4993886;28;20987;-80
2024/01/28 08:26:36;;;;;;;7.83;4.17;;;12.60;99.90;;;;;;5005042;28;20172;-83
2024/01/28 08:29:02;;;;;;;9.23;3.70;;;12.70;99.90;;;;;;4993052;28;20180;-80
2024/01/28 08:31:28;;;;;;;8.23;4.07;;;12.70;99.90;;;;;;4997674;28;20307;-80
2024/01/28 08:33:54;;;;;;;8.77;4.23;;;12.40;99.90;;;;;;4995639;28;20299;-80
2024/01/28 08:36:20;;;;;;;8.90;3.93;;;11.30;99.90;;;;;;4993410;28;21027;-80
2024/01/28 08:38:45;;;;;;;7.83;4.23;;;10.70;99.90;;;;;;4988042;28;20218;-80
2024/01/28 08:41:11;;;;;;;9.90;4.73;;;11.70;99.90;;;;;;4992677;28;20189;-82
2024/01/28 08:43:37;;;;;;;7.10;4.53;;;12.70;99.90;;;;;;4990348;28;20200;-83
2024/01/28 08:46:03;;;;;;;9.40;5.23;;;14.20;99.90;;;;;;4995719;28;20172;-80
2024/01/28 08:48:29;;;;;;;9.77;5.53;;;14.90;99.90;;;;;;4994772;28;20419;-80
2024/01/28 08:50:55;;;;;;;9.73;4.80;;;15.40;99.90;;;;;;4997085;28;20962;-84
2024/01/28 08:53:21;;;;;;;10.87;5.87;;;16.10;99.90;;;;;;5011706;28;20538;-81
2024/01/28 08:55:47;;;;;;;9.20;4.53;;;16.90;99.90;;;;;;5010205;28;20514;-81
2024/01/28 08:58:12;;;;;;;11.93;5.07;;;17.30;99.90;;;;;;4995957;28;20187;-83
2024/01/28 09:00:39;;;;;;;7.70;4.40;;;17.60;99.90;;;;;;5011911;28;20270;-83
2024/01/28 09:03:05;;;;;;;11.13;5.30;;;17.30;99.90;;;;;;4995279;28;20572;-81
2024/01/28 09:05:31;;;;;;;13.10;4.50;;;17.20;99.90;;;;;;4993558;28;20447;-83
2024/01/28 09:07:56;;;;;;;8.83;3.80;;;17.20;99.90;;;;;;4988430;28;20205;-82
2024/01/28 09:10:23;;;;;;;7.10;4.50;;;18.20;99.90;;;;;;5010463;28;20482;-82
2024/01/28 09:12:48;;;;;;;10.13;5.07;;;18.10;99.90;;;;;;4991633;28;20275;-82
2024/01/28 09:15:14;;;;;;;7.70;4.50;;;17.60;99.90;;;;;;4993427;28;20448;-81
2024/01/28 09:17:41;;;;;;;9.63;4.90;;;17.70;99.90;;;;;;4996117;28;20203;-81
2024/01/28 09:20:07;;;;;;;7.90;4.63;;;17.70;99.90;;;;;;4993539;28;20446;-81
2024/01/28 09:22:36;;;;;;;9.40;6.40;;;18.00;99.90;;;;;;4995939;28;20451;-82
2024/01/28 09:25:03;;;;;;;11.27;6.50;;;18.30;99.90;;;;;;4996478;28;20494;-82
2024/01/28 09:27:29;;;;;;;14.23;7.30;;;18.60;99.90;;;;;;4995236;28;20502;-81
2024/01/28 09:29:55;;;;;;;8.00;6.27;;;18.80;99.90;;;;;;4996486;28;20832;-81
2024/01/28 09:32:21;;;;;;;12.13;6.60;;;18.50;99.90;;;;;;4996637;28;20423;-81
2024/01/28 09:34:46;;;;;;;8.77;5.93;;;18.30;99.90;;;;;;4996618;28;20183;-81
2024/01/28 09:37:12;;;;;;;8.17;5.27;;;19.20;99.90;;;;;;4995738;28;20259;-84
2024/01/28 09:39:37;;;;;;;10.40;5.90;;;18.90;99.90;;;;;;4991622;28;20180;-81
2024/01/28 09:42:34;;;;;;;9.83;5.40;;;18.70;99.90;;;;;;4993069;28;20188;-82
2024/01/28 09:45:00;;;;;;;9.60;5.43;;;18.80;99.90;;;;;;4996666;28;20295;-81
2024/01/28 09:47:27;;;;;;;9.80;5.90;;;18.90;99.90;;;;;;4996270;28;20418;-81
2024/01/28 09:49:54;;;;;;;8.37;5.23;;;17.30;99.90;;;;;;4994711;28;20426;-83
2024/01/28 09:52:19;;;;;;;6.97;4.57;;;15.90;99.90;;;;;;4996109;28;20415;-81
2024/01/28 09:54:45;;;;;;;8.43;4.80;;;14.40;99.90;;;;;;4996657;28;20433;-81
2024/01/28 09:57:11;;;;;;;8.70;5.37;;;13.40;99.90;;;;;;4996052;28;20206;-81
2024/01/28 09:59:38;;;;;;;8.43;5.50;;;12.40;99.90;;;;;;4997148;28;20176;-81
2024/01/28 10:02:04;;;;;;;10.70;4.67;;;11.80;99.90;;;;;;4996795;28;20440;-82
2024/01/28 10:04:31;;;;;;;13.93;5.23;;;11.50;99.90;;;;;;4992196;28;20463;-80
2024/01/28 10:07:02;;;;;;;9.10;4.80;;;11.00;99.90;;;;;;4992423;28;20502;-79
2024/01/28 10:09:28;;;;;;;11.60;5.60;;;10.50;99.90;;;;;;4997044;28;20415;-81
2024/01/28 10:11:56;;;;;;;14.47;5.97;;;10.10;99.90;;;;;;4995714;28;20837;-81
2024/01/28 10:14:22;;;;;;;14.83;5.00;;;9.70;99.90;;;;;;4996812;28;20530;-80
2024/01/28 10:16:48;;;;;;;10.20;5.00;;;9.60;99.90;;;;;;4996251;28;20427;-80
2024/01/28 10:19:14;;;;;;;8.77;4.93;;;9.30;99.90;;;;;;4997116;28;20184;-84
2024/01/28 10:21:41;;;;;;;5.87;3.90;;;9.30;99.90;;;;;;4998263;28;20481;-80
2024/01/28 10:24:09;;;;;;;9.77;4.70;;;9.20;99.90;;;;;;4997519;28;20243;-82
2024/01/28 10:26:34;;;;;;;10.30;4.80;;;9.10;99.90;;;;;;4989582;28;20415;-82
2024/01/28 10:29:00;;;;;;;7.40;4.57;;;9.10;99.90;;;;;;4990865;28;20474;-81
2024/01/28 10:31:26;;;;;;;10.70;4.90;;;9.00;99.90;;;;;;4998158;28;20244;-80
2024/01/28 10:33:51;;;;;;;8.83;4.63;;;9.00;99.90;;;;;;4996258;28;20291;-81
2024/01/28 10:36:17;;;;;;;7.67;4.50;;;8.90;99.90;;;;;;4997450;28;20446;-83
2024/01/28 10:38:46;;;;;;;16.53;6.07;;;8.60;99.90;;;;;;4989624;28;20189;-82
2024/01/28 10:41:19;;;;;;;9.90;4.10;;;8.70;99.90;;;;;;4977009;28;20427;-82
2024/01/28 10:44:00;;;;;;;10.40;4.57;;;8.50;99.90;;;;;;4989724;28;20549;-83
2024/01/28 10:46:35;;;;;;;8.83;4.97;;;8.60;99.90;;;;;;4984841;28;20449;-80
2024/01/28 10:49:04;;;;;;;9.90;4.57;;;8.40;99.90;;;;;;4975325;28;20427;-79
2024/01/28 10:51:32;;;;;;;13.43;4.73;;;8.40;99.90;;;;;;4975975;28;20424;-80
2024/01/28 10:54:00;;;;;;;8.53;4.10;;;8.40;99.90;;;;;;4984155;28;20470;-80
2024/01/28 10:56:27;;;;;;;8.40;4.50;;;8.30;99.90;;;;;;4994513;28;20427;-81
2024/01/28 10:58:53;;;;;;;10.40;4.30;;;8.40;99.90;;;;;;4993968;28;21010;-81
2024/01/28 11:01:19;;;;;;;9.97;4.93;;;8.50;99.90;;;;;;4994506;28;20419;-80
2024/01/28 11:03:45;;;;;;;8.40;4.37;;;8.50;99.90;;;;;;4993620;28;20501;-82
2024/01/28 11:06:16;;;;;;;10.17;5.10;;;8.40;99.90;;;;;;4993713;28;20941;-79
2024/01/28 11:08:42;;;;;;;6.13;4.13;;;8.60;99.90;;;;;;4981166;28;20424;-79
2024/01/28 11:11:08;;;;;;;8.60;4.83;;;8.50;99.90;;;;;;4974426;28;20516;-81
2024/01/28 11:13:33;;;;;;;7.10;4.53;;;8.70;99.90;;;;;;4974645;28;20467;-79
2024/01/28 11:15:59;;;;;;;14.37;5.37;;;8.70;99.90;;;;;;4974604;28;20207;-80
2024/01/28 11:18:29;;;;;;;8.70;3.93;;;8.80;99.90;;;;;;4989526;28;20224;-79
2024/01/28 11:20:55;;;;;;;12.50;4.70;;;9.00;99.90;;;;;;4975302;28;20184;-80
2024/01/28 11:23:20;;;;;;;10.60;4.60;;;9.80;99.90;;;;;;4994531;28;20477;-80
2024/01/28 11:25:46;;;;;;;7.40;4.47;;;11.00;99.90;;;;;;4993754;28;20176;-80
2024/01/28 11:28:14;;;;;;;9.30;4.47;;;12.50;99.90;;;;;;4987825;28;20267;-80
2024/01/28 11:30:40;;;;;;;6.30;3.60;;;13.80;99.90;;;;;;4993790;28;20415;-80
2024/01/28 11:33:14;;;;;;;8.80;4.60;;;15.30;99.90;;;;;;4993793;28;20962;-81
2024/01/28 11:35:43;;;;;;;7.90;4.53;;;16.50;99.90;;;;;;4993423;28;20415;-81
2024/01/28 11:38:12;;;;;;;8.10;4.60;;;16.90;99.90;;;;;;4990689;28;20944;-81
2024/01/28 11:40:39;;;;;;;5.37;3.87;;;17.30;99.90;;;;;;4993096;28;20603;-80
2024/01/28 11:43:07;;;;;;;7.90;4.20;;;17.30;99.90;;;;;;4992541;28;20437;-81
2024/01/28 11:45:34;;;;;;;5.57;4.00;;;18.10;99.90;;;;;;4992949;28;20422;-82
2024/01/28 11:48:09;;;;;;;7.30;4.07;;;18.40;99.90;;;;;;4993169;28;20922;-79
2024/01/28 11:50:35;;;;;;;11.23;6.30;;;18.90;99.90;;;;;;4993283;28;20486;-81
2024/01/28 11:53:00;;;;;;;9.43;5.40;;;19.20;99.90;;;;;;4993268;28;20494;-80
2024/01/28 11:55:26;;;;;;;9.50;4.43;;;19.20;99.90;;;;;;4989530;28;20758;-80
2024/01/28 11:57:51;;;;;;;6.97;3.70;;;19.00;99.90;;;;;;4989795;28;20191;-81
2024/01/28 12:00:17;;;;;;;7.17;3.73;;;19.00;99.90;;;;;;4997374;28;20184;-81
2024/01/28 12:02:43;;;;;;;5.73;3.83;;;19.10;99.90;;;;;;4996792;28;20211;-80
2024/01/28 12:05:10;;;;;;;6.53;4.27;;;18.60;99.90;;;;;;5011911;28;20251;-80
2024/01/28 12:07:37;;;;;;;5.57;3.37;;;18.70;99.90;;;;;;4998646;28;20626;-81
2024/01/28 12:10:07;;;;;;;7.87;3.77;;;18.60;99.90;;;;;;4997237;28;20793;-80
2024/01/28 12:12:34;;;;;;;4.97;3.10;;;19.40;99.90;;;;;;4995527;28;20470;-80
2024/01/28 12:15:05;;;;;;;8.10;4.67;;;19.30;99.90;;;;;;5001135;28;20465;-82
2024/01/28 12:17:37;;;;;;;5.30;3.93;;;19.20;99.90;;;;;;4996567;28;20427;-80
2024/01/28 12:20:06;;;;;;;4.67;3.50;;;19.10;99.90;;;;;;4994877;28;20423;-81
2024/01/28 12:22:38;;;;;;;7.40;4.03;;;19.40;99.90;;;;;;4994930;28;20610;-80
2024/01/28 12:25:11;;;;;;;5.80;3.43;;;18.90;99.90;;;;;;4996288;28;20503;-80
2024/01/28 12:27:38;;;;;;;7.13;3.37;;;18.90;99.90;;;;;;4996207;28;20423;-81
2024/01/28 12:30:05;;;;;;;7.17;3.93;;;19.40;99.90;;;;;;4994722;28;20768;-81
2024/01/28 12:32:31;;;;;;;7.10;4.23;;;20.30;99.90;;;;;;4999960;28;20505;-82
2024/01/28 12:35:03;;;;;;;6.40;4.20;;;20.10;99.90;;;;;;4982968;28;20424;-80
2024/01/28 12:37:32;;;;;;;7.60;4.27;;;20.40;99.90;;;;;;4981571;28;20188;-80
2024/01/28 12:39:58;;;;;;;5.87;3.67;;;20.10;99.90;;;;;;4980027;28;20858;-82
2024/01/28 12:42:24;;;;;;;6.70;4.53;;;20.20;99.90;;;;;;4990705;28;20462;-82
2024/01/28 12:44:50;;;;;;;7.17;4.43;;;20.00;99.90;;;;;;4995416;28;20481;-80
2024/01/28 12:47:15;;;;;;;6.83;4.30;;;19.70;99.90;;;;;;4991699;28;20522;-82
2024/01/28 12:49:41;;;;;;;9.97;4.73;;;19.70;99.90;;;;;;4989596;28;20242;-80
2024/01/28 12:52:06;;;;;;;9.83;4.77;;;19.50;99.90;;;;;;4986435;28;20728;-80